Time;durP1;ratioP1;P1;durP2;ratioP2;P2;SDS_P1;SDS_P2;PMS_P1;PMS_P2;Temp;Humidity;BMP_temperature;BMP_pressure;BME280_temperature;BME280_humidity;BME280_pressure;Samples;Min_cycle;Max_cycle;Signal;HPM_P1;HPM_P2
2023/10/01 00:00:12;;;;;;;19.02;13.90;;;14.70;99.90;;;;;;5067703;28;20024;-77
2023/10/01 00:02:39;;;;;;;21.45;13.95;;;14.60;99.90;;;;;;5072984;28;20028;-77
2023/10/01 00:05:06;;;;;;;22.27;14.95;;;14.70;99.90;;;;;;5086724;28;20016;-78
2023/10/01 00:07:37;;;;;;;23.58;14.52;;;14.70;99.90;;;;;;5073322;28;20498;-77
2023/10/01 00:10:12;;;;;;;20.02;13.93;;;14.70;99.90;;;;;;5095394;28;20055;-76
2023/10/01 00:12:44;;;;;;;20.63;13.57;;;14.70;99.90;;;;;;5071061;28;20024;-77
2023/10/01 00:15:12;;;;;;;19.27;13.40;;;14.70;99.90;;;;;;5075408;28;20111;-78
2023/10/01 00:17:39;;;;;;;20.17;13.07;;;14.70;99.90;;;;;;5092457;28;20492;-80
2023/10/01 00:20:14;;;;;;;21.98;13.93;;;14.70;99.90;;;;;;5084456;28;20020;-80
2023/10/01 00:22:41;;;;;;;21.13;13.98;;;14.70;99.90;;;;;;5078783;28;20063;-78
2023/10/01 00:25:10;;;;;;;20.40;13.35;;;14.70;99.90;;;;;;5091142;28;20446;-79
2023/10/01 00:27:37;;;;;;;18.55;13.07;;;14.70;99.90;;;;;;5081994;28;20523;-78
2023/10/01 00:30:04;;;;;;;18.35;13.18;;;14.70;99.90;;;;;;5076450;28;20065;-78
2023/10/01 00:32:30;;;;;;;22.33;13.35;;;14.70;99.90;;;;;;5085343;28;20445;-78
2023/10/01 00:34:58;;;;;;;18.10;12.55;;;14.70;99.90;;;;;;5072743;28;20107;-79
2023/10/01 00:37:24;;;;;;;20.38;12.43;;;14.70;99.90;;;;;;5068352;28;20028;-78
2023/10/01 00:39:56;;;;;;;17.48;11.80;;;14.70;99.90;;;;;;5079087;28;20038;-78
2023/10/01 00:42:23;;;;;;;19.45;12.48;;;14.60;99.90;;;;;;5065179;28;20193;-78
2023/10/01 00:44:49;;;;;;;18.45;12.05;;;14.70;99.90;;;;;;5089562;28;20047;-78
2023/10/01 00:47:16;;;;;;;20.00;12.45;;;14.70;99.90;;;;;;5067430;28;20105;-78
2023/10/01 00:49:46;;;;;;;16.58;11.63;;;14.70;99.90;;;;;;5061015;28;20024;-80
2023/10/01 00:52:20;;;;;;;16.73;11.55;;;14.60;99.90;;;;;;5073662;28;20724;-79
2023/10/01 00:54:46;;;;;;;17.85;12.10;;;14.70;99.90;;;;;;5087193;28;20031;-79
2023/10/01 00:57:14;;;;;;;16.58;11.75;;;14.60;99.90;;;;;;5087447;28;20111;-78
2023/10/01 00:59:40;;;;;;;18.80;12.48;;;14.60;99.90;;;;;;5062190;28;20031;-78
2023/10/01 01:02:07;;;;;;;15.25;10.80;;;14.60;99.90;;;;;;5076227;28;20024;-78
2023/10/01 01:04:42;;;;;;;15.15;11.30;;;14.60;99.90;;;;;;5088223;28;20016;-78
2023/10/01 01:07:15;;;;;;;17.75;11.55;;;14.60;99.90;;;;;;5080984;28;20024;-78
2023/10/01 01:09:42;;;;;;;19.17;12.27;;;14.50;99.90;;;;;;5080702;28;20025;-79
2023/10/01 01:12:08;;;;;;;19.40;11.57;;;14.50;99.90;;;;;;5075835;28;20030;-78
2023/10/01 01:14:35;;;;;;;15.15;10.85;;;14.50;99.90;;;;;;5067042;28;20024;-78
2023/10/01 01:17:01;;;;;;;19.13;11.70;;;14.50;99.90;;;;;;5084515;28;20028;-78
2023/10/01 01:19:27;;;;;;;17.17;12.50;;;14.40;99.90;;;;;;5067964;28;20016;-79
2023/10/01 01:21:53;;;;;;;17.17;11.23;;;14.40;99.90;;;;;;5069928;28;20032;-77
2023/10/01 01:24:19;;;;;;;15.20;10.73;;;14.40;99.90;;;;;;5071631;28;20009;-78
2023/10/01 01:26:51;;;;;;;17.05;11.40;;;14.40;99.90;;;;;;5085931;28;20020;-78
2023/10/01 01:29:29;;;;;;;16.38;10.00;;;14.40;99.90;;;;;;5096176;28;20023;-79
2023/10/01 01:32:07;;;;;;;17.13;10.57;;;14.40;99.90;;;;;;5090467;28;20016;-78
2023/10/01 01:34:37;;;;;;;18.88;11.77;;;14.40;99.90;;;;;;5075671;28;20024;-79
2023/10/01 01:37:06;;;;;;;17.92;10.63;;;14.40;99.90;;;;;;5068968;28;20017;-79
2023/10/01 01:39:48;;;;;;;17.65;10.77;;;14.40;99.90;;;;;;5099424;28;20035;-78
2023/10/01 01:42:21;;;;;;;15.98;10.45;;;14.40;99.90;;;;;;5090997;28;20028;-79
2023/10/01 01:44:48;;;;;;;14.40;10.48;;;14.40;99.90;;;;;;5077644;28;20020;-79
2023/10/01 01:47:15;;;;;;;14.30;9.07;;;14.30;99.90;;;;;;5091766;28;20023;-78
2023/10/01 01:49:42;;;;;;;13.60;10.25;;;14.30;99.90;;;;;;5065141;28;20078;-78
2023/10/01 01:52:09;;;;;;;13.50;9.60;;;14.40;99.90;;;;;;5073394;28;20052;-78
2023/10/01 01:54:37;;;;;;;12.25;9.10;;;14.40;99.90;;;;;;5088551;28;20024;-79
2023/10/01 01:57:03;;;;;;;13.77;9.60;;;14.30;99.90;;;;;;5070648;28;20031;-78
2023/10/01 01:59:29;;;;;;;17.70;9.75;;;14.40;99.90;;;;;;5073161;28;20442;-78
2023/10/01 02:01:56;;;;;;;13.52;9.50;;;14.40;99.90;;;;;;5089684;28;20032;-78
2023/10/01 02:04:23;;;;;;;13.60;8.13;;;14.30;99.90;;;;;;5078597;28;20475;-78
2023/10/01 02:06:52;;;;;;;15.40;8.95;;;14.30;99.90;;;;;;5087223;28;20023;-78
2023/10/01 02:09:24;;;;;;;16.30;8.25;;;14.30;99.90;;;;;;5092804;28;20076;-79
2023/10/01 02:11:52;;;;;;;10.27;7.97;;;14.30;99.90;;;;;;5082350;28;20034;-78
2023/10/01 02:14:31;;;;;;;12.02;7.82;;;14.30;99.90;;;;;;5077500;28;20395;-78
2023/10/01 02:17:13;;;;;;;13.45;8.55;;;14.30;99.90;;;;;;5068549;28;20012;-78
2023/10/01 02:19:39;;;;;;;10.80;8.07;;;14.30;99.90;;;;;;5074158;28;20028;-79
2023/10/01 02:22:08;;;;;;;13.35;8.38;;;14.30;99.90;;;;;;5096204;28;20085;-79
2023/10/01 02:24:44;;;;;;;13.57;8.15;;;14.30;99.90;;;;;;5075323;28;20032;-78
2023/10/01 02:27:13;;;;;;;13.07;7.80;;;14.30;99.90;;;;;;5074605;28;20445;-78
2023/10/01 02:29:45;;;;;;;11.30;7.13;;;14.30;99.90;;;;;;5070019;28;20364;-79
2023/10/01 02:32:17;;;;;;;13.30;7.50;;;14.30;99.90;;;;;;5080989;28;20109;-78
2023/10/01 02:34:43;;;;;;;10.88;7.50;;;14.30;99.90;;;;;;5076226;28;20081;-78
2023/10/01 02:37:10;;;;;;;13.90;7.70;;;14.30;99.90;;;;;;5081626;28;20114;-78
2023/10/01 02:39:39;;;;;;;11.00;6.88;;;14.30;99.90;;;;;;5087289;28;20031;-78
2023/10/01 02:44:40;;;;;;;9.40;7.32;;;14.30;99.90;;;;;;5088192;28;20020;-78
2023/10/01 02:47:16;;;;;;;10.25;6.90;;;14.30;99.90;;;;;;5080612;28;20639;-78
2023/10/01 02:49:58;;;;;;;11.05;7.45;;;14.30;99.90;;;;;;5091520;28;20024;-78
2023/10/01 02:52:37;;;;;;;9.53;6.37;;;14.30;99.90;;;;;;5069551;28;20043;-78
2023/10/01 02:55:18;;;;;;;17.55;7.50;;;14.30;99.90;;;;;;5074809;28;20050;-78
2023/10/01 02:57:45;;;;;;;11.80;7.05;;;14.30;99.90;;;;;;5093993;28;20084;-78
2023/10/01 03:02:38;;;;;;;12.35;7.10;;;14.20;99.90;;;;;;5094224;28;20039;-78
2023/10/01 03:05:08;;;;;;;15.30;7.25;;;14.20;99.90;;;;;;5069149;28;20016;-77
2023/10/01 03:07:45;;;;;;;10.20;6.97;;;14.30;99.90;;;;;;5077456;28;20084;-78
2023/10/01 03:10:12;;;;;;;13.40;7.40;;;14.30;99.90;;;;;;5077072;28;20493;-78
2023/10/01 03:12:40;;;;;;;9.43;6.57;;;14.30;99.90;;;;;;5068381;28;20111;-78
2023/10/01 03:17:55;;;;;;;13.18;7.82;;;14.30;99.90;;;;;;5093222;28;20024;-78
2023/10/01 03:23:05;;;;;;;11.27;7.28;;;14.30;99.90;;;;;;5092096;28;20111;-78
2023/10/01 03:25:41;;;;;;;11.82;7.43;;;14.20;99.90;;;;;;5093379;28;20020;-78
2023/10/01 03:28:11;;;;;;;10.70;7.65;;;14.20;99.90;;;;;;5073242;28;20014;-78
2023/10/01 03:30:40;;;;;;;9.07;7.03;;;14.20;99.90;;;;;;5091853;28;20032;-78
2023/10/01 03:33:12;;;;;;;12.98;7.75;;;14.10;99.90;;;;;;5081427;28;20028;-78
2023/10/01 03:35:37;;;;;;;12.10;7.97;;;14.10;99.90;;;;;;5080588;28;20031;-78
2023/10/01 03:38:09;;;;;;;12.93;7.63;;;14.10;99.90;;;;;;5071753;28;20037;-78
2023/10/01 03:40:57;;;;;;;7.50;6.38;;;14.10;99.90;;;;;;5097854;28;20020;-78
2023/10/01 03:43:31;;;;;;;9.77;7.45;;;14.10;99.90;;;;;;5098157;28;20644;-78
2023/10/01 03:46:06;;;;;;;13.45;7.00;;;14.10;99.90;;;;;;5090819;28;20019;-78
2023/10/01 03:48:57;;;;;;;11.15;6.97;;;14.00;99.90;;;;;;5072287;28;20024;-78
2023/10/01 03:51:28;;;;;;;13.90;6.75;;;14.00;99.90;;;;;;5091263;28;20039;-78
2023/10/01 03:54:03;;;;;;;11.70;7.25;;;14.00;99.90;;;;;;5096517;28;20039;-78
2023/10/01 03:56:30;;;;;;;13.82;7.35;;;14.00;99.90;;;;;;5080819;28;20032;-79
2023/10/01 03:58:56;;;;;;;10.27;7.18;;;14.00;99.90;;;;;;5081094;28;20047;-78
2023/10/01 04:01:33;;;;;;;12.32;7.40;;;14.00;99.90;;;;;;5099968;28;20036;-78
2023/10/01 04:04:00;;;;;;;9.68;7.22;;;13.90;99.90;;;;;;5073567;28;20146;-78
2023/10/01 04:06:27;;;;;;;10.18;6.68;;;13.90;99.90;;;;;;5080754;28;20364;-78
2023/10/01 04:08:56;;;;;;;10.98;6.85;;;14.00;99.90;;;;;;5081427;28;20016;-77
2023/10/01 04:11:49;;;;;;;12.75;6.88;;;14.00;99.90;;;;;;5078872;28;20557;-78
2023/10/01 04:14:17;;;;;;;10.20;6.70;;;14.00;99.90;;;;;;5083940;28;20046;-78
2023/10/01 04:16:46;;;;;;;13.35;7.30;;;14.00;99.90;;;;;;5093564;28;20060;-78
2023/10/01 04:19:18;;;;;;;13.70;7.28;;;14.00;99.90;;;;;;5079017;28;20051;-78
2023/10/01 04:21:44;;;;;;;9.53;7.30;;;14.00;99.90;;;;;;5066983;28;20119;-78
2023/10/01 04:24:10;;;;;;;12.63;6.85;;;14.00;99.90;;;;;;5079053;28;20475;-78
2023/10/01 04:26:36;;;;;;;10.20;5.43;;;14.10;99.90;;;;;;5084906;28;20032;-78
2023/10/01 04:29:02;;;;;;;10.45;6.38;;;14.10;99.90;;;;;;5083921;28;20563;-78
2023/10/01 04:31:47;;;;;;;10.13;7.55;;;14.10;99.90;;;;;;5072809;28;20052;-78
2023/10/01 04:34:14;;;;;;;10.02;5.60;;;14.00;99.90;;;;;;5073042;28;20078;-77
2023/10/01 04:36:43;;;;;;;12.80;6.75;;;14.00;99.90;;;;;;5099309;28;20028;-78
2023/10/01 04:39:09;;;;;;;14.05;7.25;;;14.00;99.90;;;;;;5096876;28;20023;-78
2023/10/01 04:41:35;;;;;;;10.32;6.70;;;14.00;99.90;;;;;;5083390;28;20415;-78
2023/10/01 04:44:07;;;;;;;11.13;6.43;;;14.00;99.90;;;;;;5092218;28;20016;-78
2023/10/01 04:46:40;;;;;;;13.43;6.55;;;14.00;99.90;;;;;;5074670;28;20012;-77
2023/10/01 04:49:26;;;;;;;;;;;14.00;99.90;;;;;;5073820;28;20518;-78
2023/10/01 04:51:55;;;;;;;25.05;6.70;;;14.00;99.90;;;;;;5099231;28;19915;-78
2023/10/01 04:54:22;;;;;;;11.23;6.68;;;14.00;99.90;;;;;;5090541;28;20104;-78
2023/10/01 04:56:48;;;;;;;15.13;6.80;;;14.00;99.90;;;;;;5072576;28;20024;-78
2023/10/01 04:59:15;;;;;;;15.80;7.07;;;13.90;99.90;;;;;;5090325;28;20013;-78
2023/10/01 05:01:41;;;;;;;11.95;6.10;;;13.90;99.90;;;;;;5081772;28;20035;-78
2023/10/01 05:04:11;;;;;;;8.55;5.57;;;14.00;99.90;;;;;;5080900;28;20426;-78
2023/10/01 05:06:40;;;;;;;9.85;6.00;;;14.00;99.90;;;;;;5076900;28;20012;-78
2023/10/01 05:09:07;;;;;;;9.50;5.95;;;14.00;99.90;;;;;;5078240;28;20102;-78
2023/10/01 05:11:34;;;;;;;12.70;7.40;;;14.00;99.90;;;;;;5081028;28;20017;-77
2023/10/01 05:14:04;;;;;;;12.18;8.13;;;13.90;99.90;;;;;;5078807;28;20024;-78
2023/10/01 05:16:31;;;;;;;15.52;8.63;;;13.90;99.90;;;;;;5092023;28;20017;-78
2023/10/01 05:19:10;;;;;;;13.15;8.20;;;13.80;99.90;;;;;;5080848;28;20031;-78
2023/10/01 05:21:50;;;;;;;17.27;9.32;;;13.80;99.90;;;;;;5089140;28;20028;-78
2023/10/01 05:24:31;;;;;;;14.48;7.65;;;13.80;99.90;;;;;;5079336;28;20104;-79
2023/10/01 05:27:00;;;;;;;14.85;8.07;;;13.80;99.90;;;;;;5080868;28;20033;-78
2023/10/01 05:29:26;;;;;;;14.23;6.95;;;13.90;99.90;;;;;;5063865;28;20024;-78
2023/10/01 05:31:55;;;;;;;13.52;6.50;;;13.90;99.90;;;;;;5065004;28;20024;-78
2023/10/01 05:34:22;;;;;;;11.18;6.50;;;13.90;99.90;;;;;;5067881;28;20031;-78
2023/10/01 05:36:52;;;;;;;12.85;6.80;;;13.80;99.90;;;;;;5062661;28;21043;-78
2023/10/01 05:39:23;;;;;;;11.88;7.25;;;13.80;99.90;;;;;;5061577;28;20082;-78
2023/10/01 05:41:51;;;;;;;11.55;7.75;;;13.80;99.90;;;;;;5066263;28;20424;-79
2023/10/01 05:44:18;;;;;;;17.63;8.48;;;13.70;99.90;;;;;;5060734;28;20397;-78
2023/10/01 05:46:49;;;;;;;15.57;8.75;;;13.70;99.90;;;;;;5065099;28;20090;-79
2023/10/01 05:49:18;;;;;;;16.92;9.23;;;13.70;99.90;;;;;;5062890;28;20077;-80
2023/10/01 05:51:45;;;;;;;16.80;9.43;;;13.70;99.90;;;;;;5090005;28;20008;-79
2023/10/01 05:54:12;;;;;;;17.55;10.25;;;13.70;99.90;;;;;;5063717;28;20304;-80
2023/10/01 05:56:43;;;;;;;13.77;7.40;;;13.80;99.90;;;;;;5073170;28;20479;-79
2023/10/01 05:59:11;;;;;;;10.20;6.70;;;13.80;99.90;;;;;;5066886;28;20081;-78
2023/10/01 06:01:39;;;;;;;13.80;7.05;;;13.90;99.90;;;;;;5087361;28;20450;-79
2023/10/01 06:04:09;;;;;;;12.40;6.63;;;13.90;99.90;;;;;;5066504;28;20460;-79
2023/10/01 06:06:36;;;;;;;18.10;7.28;;;13.90;99.90;;;;;;5071933;28;20030;-79
2023/10/01 06:09:09;;;;;;;10.60;6.28;;;13.90;99.90;;;;;;5067510;28;20046;-78
2023/10/01 06:12:10;;;;;;;14.57;7.25;;;13.90;99.90;;;;;;5077327;28;20068;-79
2023/10/01 06:14:42;;;;;;;12.50;7.82;;;13.90;99.90;;;;;;5083280;28;20036;-79
2023/10/01 06:17:10;;;;;;;14.93;8.43;;;13.80;99.90;;;;;;5075008;28;20115;-79
2023/10/01 06:19:41;;;;;;;13.30;9.02;;;13.80;99.90;;;;;;5064709;28;20028;-79
2023/10/01 06:22:13;;;;;;;21.10;9.57;;;13.80;99.90;;;;;;5064590;28;20107;-79
2023/10/01 06:24:46;;;;;;;20.25;9.07;;;13.70;99.90;;;;;;5071311;28;20391;-78
2023/10/01 06:27:13;;;;;;;16.52;9.35;;;13.80;99.90;;;;;;5066828;28;20052;-79
2023/10/01 06:29:49;;;;;;;19.52;10.18;;;13.80;99.90;;;;;;5070338;28;20522;-79
2023/10/01 06:32:21;;;;;;;15.32;9.05;;;13.90;99.90;;;;;;5064588;28;20033;-78
2023/10/01 06:34:49;;;;;;;16.65;8.82;;;13.90;99.90;;;;;;5072804;28;20020;-79
2023/10/01 06:37:15;;;;;;;17.30;9.13;;;13.90;99.90;;;;;;5070790;28;20021;-79
2023/10/01 06:39:43;;;;;;;21.42;8.95;;;13.90;99.90;;;;;;5065809;28;20123;-78
2023/10/01 06:42:18;;;;;;;17.33;8.27;;;13.90;99.90;;;;;;5064407;28;20016;-79
2023/10/01 06:44:55;;;;;;;12.23;6.82;;;14.00;99.90;;;;;;5056312;28;20024;-78
2023/10/01 06:47:26;;;;;;;11.93;7.13;;;14.00;99.90;;;;;;5081391;28;20099;-79
2023/10/01 06:52:34;;;;;;;15.82;8.27;;;13.90;99.90;;;;;;5079814;28;20039;-79
2023/10/01 06:55:01;;;;;;;12.32;7.90;;;13.90;99.90;;;;;;5068656;28;20028;-79
2023/10/01 06:57:31;;;;;;;13.82;7.35;;;13.90;99.90;;;;;;5087693;28;20019;-79
2023/10/01 06:59:57;;;;;;;13.38;8.10;;;14.00;99.90;;;;;;5087197;28;20055;-79
2023/10/01 07:02:27;;;;;;;13.65;8.38;;;14.00;99.90;;;;;;5089310;28;20028;-79
2023/10/01 07:04:58;;;;;;;12.88;7.93;;;14.00;99.90;;;;;;5070274;28;20564;-79
2023/10/01 07:07:28;;;;;;;15.32;8.45;;;14.00;99.90;;;;;;5071762;28;20021;-79
2023/10/01 07:09:57;;;;;;;16.77;8.65;;;14.10;99.90;;;;;;5082451;28;20241;-79
2023/10/01 07:12:24;;;;;;;16.60;8.65;;;14.10;99.90;;;;;;5086347;28;20047;-79
2023/10/01 07:15:00;;;;;;;14.90;8.23;;;14.10;99.90;;;;;;5077142;28;20067;-78
2023/10/01 07:17:28;;;;;;;16.58;8.85;;;14.20;99.90;;;;;;5078621;28;20024;-79
2023/10/01 07:20:00;;;;;;;15.88;8.30;;;14.20;99.90;;;;;;5078822;28;20024;-79
2023/10/01 07:22:30;;;;;;;12.43;7.70;;;14.30;99.90;;;;;;5078932;28;20119;-79
2023/10/01 07:24:57;;;;;;;15.23;7.85;;;14.30;99.90;;;;;;5097134;28;20012;-79
2023/10/01 07:27:23;;;;;;;17.52;8.60;;;14.40;99.90;;;;;;5097766;28;20095;-79
2023/10/01 07:29:54;;;;;;;17.23;8.98;;;14.40;99.90;;;;;;5075809;28;20036;-79
2023/10/01 07:32:24;;;;;;;16.17;9.10;;;14.40;99.90;;;;;;5079720;28;20032;-79
2023/10/01 07:34:59;;;;;;;15.82;8.55;;;14.50;99.90;;;;;;5064982;28;20442;-79
2023/10/01 07:37:31;;;;;;;19.90;9.50;;;14.60;99.90;;;;;;5077968;28;20025;-79
2023/10/01 07:40:17;;;;;;;15.65;9.30;;;14.60;99.90;;;;;;5060777;28;20024;-79
2023/10/01 07:42:54;;;;;;;17.88;9.10;;;14.70;99.90;;;;;;5060549;28;20035;-79
2023/10/01 07:45:21;;;;;;;13.43;8.07;;;14.70;99.90;;;;;;5058471;28;20025;-79
2023/10/01 07:47:48;;;;;;;15.43;8.68;;;14.80;99.90;;;;;;5075532;28;20020;-79
2023/10/01 07:50:16;;;;;;;15.40;8.40;;;15.00;99.90;;;;;;5077167;28;20069;-79
2023/10/01 07:52:44;;;;;;;17.38;8.93;;;15.00;99.90;;;;;;5058383;28;20488;-79
2023/10/01 07:55:35;;;;;;;14.57;8.40;;;15.10;99.90;;;;;;5076237;28;20476;-79
2023/10/01 08:01:59;;;;;;;15.57;7.68;;;15.30;99.90;;;;;;5005675;28;20039;-77
2023/10/01 08:03:55;;;;;;;17.45;8.48;;;15.40;99.90;;;;;;5081842;28;20095;-78
2023/10/01 08:06:29;;;;;;;18.13;8.90;;;15.50;99.90;;;;;;5097997;28;20020;-77
2023/10/01 08:08:57;;;;;;;20.05;8.88;;;15.60;99.90;;;;;;5082108;28;20058;-77
2023/10/01 08:14:09;;;;;;;15.52;8.68;;;15.80;99.90;;;;;;5085621;28;20086;-77
2023/10/01 08:16:48;;;;;;;15.50;7.88;;;15.90;99.90;;;;;;5080617;28;20073;-78
2023/10/01 08:19:22;;;;;;;18.15;8.00;;;16.00;99.90;;;;;;5080062;28;20077;-78
2023/10/01 08:21:50;;;;;;;15.80;7.90;;;16.10;99.90;;;;;;5079614;28;20051;-78
2023/10/01 08:24:23;;;;;;;19.00;8.15;;;16.20;99.90;;;;;;5077848;28;20398;-78
2023/10/01 08:27:01;;;;;;;22.50;9.63;;;16.30;99.90;;;;;;5076010;28;20028;-77
2023/10/01 08:32:14;;;;;;;16.98;8.18;;;16.50;99.90;;;;;;5092606;28;20051;-78
2023/10/01 08:37:24;;;;;;;18.83;9.18;;;16.70;99.90;;;;;;5094672;28;20086;-77
2023/10/01 08:39:53;;;;;;;14.48;7.97;;;16.80;99.90;;;;;;5096782;28;20115;-77
2023/10/01 08:42:22;;;;;;;19.25;9.00;;;16.90;99.90;;;;;;5076848;28;20016;-78
2023/10/01 08:44:52;;;;;;;19.23;9.65;;;17.10;99.90;;;;;;5095900;28;20012;-76
2023/10/01 08:47:31;;;;;;;18.05;9.52;;;17.10;99.90;;;;;;5076600;28;20024;-76
2023/10/01 08:52:57;;;;;;;17.58;8.68;;;17.30;99.90;;;;;;5090320;28;20071;-76
2023/10/01 08:55:35;;;;;;;18.65;8.80;;;17.40;99.90;;;;;;5075540;28;20032;-78
2023/10/01 08:58:13;;;;;;;17.52;8.77;;;17.50;99.90;;;;;;5087716;28;20472;-76
2023/10/01 09:00:48;;;;;;;18.58;9.55;;;17.60;99.90;;;;;;5087623;28;20404;-76
2023/10/01 09:03:29;;;;;;;17.38;9.63;;;17.70;99.90;;;;;;5076086;28;20059;-76
2023/10/01 09:06:03;;;;;;;16.58;8.35;;;17.80;99.90;;;;;;5081425;28;20025;-77
2023/10/01 09:08:42;;;;;;;17.88;9.25;;;17.90;99.90;;;;;;5054020;28;20061;-79
2023/10/01 09:11:15;;;;;;;15.65;8.90;;;17.90;99.90;;;;;;5086983;28;20020;-78
2023/10/01 09:14:26;;;;;;;17.85;9.23;;;18.10;99.90;;;;;;5073034;28;20445;-78
2023/10/01 09:16:49;;;;;;;18.98;8.93;;;18.20;99.90;;;;;;5099170;28;20564;-77
2023/10/01 09:19:34;;;;;;;15.65;8.25;;;18.40;99.90;;;;;;5095345;28;20433;-77
2023/10/01 09:22:22;;;;;;;19.90;9.25;;;18.50;99.90;;;;;;5094736;28;20084;-77
2023/10/01 09:25:01;;;;;;;18.38;8.73;;;18.70;99.90;;;;;;5091544;28;20483;-77
2023/10/01 09:27:30;;;;;;;17.20;8.30;;;18.90;99.90;;;;;;5093611;28;20065;-77
2023/10/01 09:32:51;;;;;;;19.92;8.77;;;19.30;99.90;;;;;;5094267;28;20120;-77
2023/10/01 09:38:18;;;;;;;17.10;8.63;;;19.50;99.90;;;;;;5093622;28;20039;-76
2023/10/01 09:40:46;;;;;;;22.70;8.70;;;19.70;99.90;;;;;;5092436;28;20085;-77
2023/10/01 09:43:24;;;;;;;17.65;8.48;;;19.70;99.90;;;;;;5074606;28;20022;-77
2023/10/01 09:45:51;;;;;;;15.43;8.00;;;19.90;99.90;;;;;;5092926;28;20099;-76
2023/10/01 09:48:30;;;;;;;20.40;8.77;;;20.10;99.90;;;;;;5075339;28;20024;-76
2023/10/01 09:51:19;;;;;;;18.25;8.30;;;20.30;99.90;;;;;;5074319;28;20089;-77
2023/10/01 09:53:54;;;;;;;18.05;8.57;;;20.40;99.90;;;;;;5074334;28;20047;-77
2023/10/01 09:59:18;;;;;;;16.40;8.30;;;20.70;99.90;;;;;;5078037;28;20035;-77
2023/10/01 10:01:46;;;;;;;16.67;7.85;;;20.90;99.90;;;;;;5073951;28;20170;-77
2023/10/01 10:04:20;;;;;;;16.55;7.85;;;20.90;99.90;;;;;;5092365;28;20020;-77
2023/10/01 10:06:59;;;;;;;17.48;9.68;;;21.00;99.90;;;;;;5073669;28;20022;-77
2023/10/01 10:09:26;;;;;;;16.85;7.60;;;21.20;99.90;;;;;;5100668;28;20103;-77
2023/10/01 10:11:53;;;;;;;14.43;7.85;;;21.30;99.90;;;;;;5113019;28;20023;-77
2023/10/01 10:14:25;;;;;;;14.85;8.20;;;21.40;99.90;;;;;;5077424;28;20069;-77
2023/10/01 10:16:58;;;;;;;20.02;8.38;;;21.50;99.90;;;;;;5091181;28;20024;-77
2023/10/01 10:19:25;;;;;;;15.13;8.80;;;21.60;99.90;;;;;;5059889;28;20491;-77
2023/10/01 10:22:05;;;;;;;16.25;8.77;;;21.70;99.90;;;;;;5070502;28;20100;-78
2023/10/01 10:24:47;;;;;;;19.73;8.38;;;21.90;99.90;;;;;;5070009;28;20088;-78
2023/10/01 10:27:19;;;;;;;14.40;7.83;;;22.00;99.90;;;;;;5068079;28;20491;-77
2023/10/01 10:29:57;;;;;;;16.08;9.10;;;22.20;99.90;;;;;;5072021;28;20016;-77
2023/10/01 10:32:24;;;;;;;16.52;8.30;;;22.30;99.90;;;;;;5070943;28;20015;-77
2023/10/01 10:35:05;;;;;;;21.20;9.20;;;22.40;99.90;;;;;;5068965;28;20068;-78
2023/10/01 10:37:37;;;;;;;14.77;8.05;;;22.50;99.90;;;;;;5072871;28;20023;-77
2023/10/01 10:40:14;;;;;;;17.42;8.27;;;22.60;99.90;;;;;;5071860;28;20023;-77
2023/10/01 10:42:57;;;;;;;16.83;8.40;;;22.70;99.90;;;;;;5072056;28;20085;-76
2023/10/01 10:45:26;;;;;;;18.02;8.50;;;22.80;99.90;;;;;;5093020;28;20035;-76
2023/10/01 10:47:59;;;;;;;15.35;8.50;;;22.90;99.90;;;;;;5092235;28;20038;-77
2023/10/01 10:51:02;;;;;;;17.52;8.15;;;22.90;99.90;;;;;;5073845;28;20024;-77
2023/10/01 10:53:58;;;;;;;16.48;8.75;;;22.90;99.90;;;;;;5073284;28;20074;-78
2023/10/01 10:56:35;;;;;;;16.05;8.40;;;23.00;99.90;;;;;;5071414;28;20043;-78
2023/10/01 10:59:03;;;;;;;14.07;7.97;;;23.20;99.90;;;;;;5092572;28;20019;-77
2023/10/01 11:01:44;;;;;;;13.30;7.50;;;23.20;99.90;;;;;;5073122;28;20127;-78
2023/10/01 11:04:12;;;;;;;14.70;8.20;;;23.30;99.90;;;;;;5094334;28;20024;-78
2023/10/01 11:06:47;;;;;;;18.90;9.02;;;23.20;99.90;;;;;;5092852;28;20023;-78
2023/10/01 11:11:51;;;;;;;16.85;9.63;;;23.40;99.90;;;;;;5092378;28;20019;-77
2023/10/01 11:14:18;;;;;;;15.05;8.90;;;23.40;99.90;;;;;;5094397;28;20066;-77
2023/10/01 11:16:48;;;;;;;15.98;8.80;;;23.40;99.90;;;;;;5072796;28;20031;-78
2023/10/01 11:19:17;;;;;;;20.40;8.68;;;23.50;99.90;;;;;;5071400;28;23734;-76
2023/10/01 11:22:00;;;;;;;16.10;8.80;;;23.50;99.90;;;;;;5072449;28;20030;-77
2023/10/01 11:24:25;;;;;;;;;;;23.50;99.90;;;;;;5076781;28;20024;-77
2023/10/01 11:27:25;;;;;;;15.27;8.23;;;23.60;99.90;;;;;;5075896;28;19904;-77
2023/10/01 11:29:59;;;;;;;14.32;7.68;;;23.70;99.90;;;;;;5069488;28;20019;-77
2023/10/01 11:35:31;;;;;;;;;;;23.90;99.90;;;;;;5097954;28;20032;-78
2023/10/01 11:38:07;;;;;;;17.85;8.98;;;24.00;99.90;;;;;;5075611;28;19916;-77
2023/10/01 11:43:32;;;;;;;20.60;8.60;;;24.00;99.90;;;;;;5096096;28;20075;-77
2023/10/01 11:46:19;;;;;;;15.75;8.35;;;24.10;99.90;;;;;;5070680;28;20028;-77
2023/10/01 11:49:14;;;;;;;16.73;8.70;;;24.10;99.90;;;;;;5077719;28;20015;-76
2023/10/01 11:51:45;;;;;;;17.50;8.60;;;24.10;99.90;;;;;;5098309;28;20525;-77
2023/10/01 11:54:44;;;;;;;15.70;9.00;;;24.20;99.90;;;;;;5081896;28;20055;-77
2023/10/01 11:57:22;;;;;;;18.40;9.60;;;24.30;99.90;;;;;;5098969;28;20062;-77
2023/10/01 11:59:55;;;;;;;18.98;10.02;;;24.30;99.90;;;;;;5075489;28;20068;-76
2023/10/01 12:02:26;;;;;;;17.40;9.40;;;24.40;99.90;;;;;;5076148;28;20028;-77
2023/10/01 12:04:57;;;;;;;14.27;8.32;;;24.40;99.90;;;;;;5075310;28;20020;-77
2023/10/01 12:07:27;;;;;;;14.30;9.15;;;24.40;99.90;;;;;;5077240;28;20058;-78
2023/10/01 12:09:54;;;;;;;21.02;10.02;;;24.50;99.90;;;;;;5077838;28;20016;-77
2023/10/01 12:12:27;;;;;;;18.30;9.98;;;24.50;99.90;;;;;;5077972;28;20094;-78
2023/10/01 12:14:56;;;;;;;19.00;10.30;;;24.60;99.90;;;;;;5076860;28;20051;-77
2023/10/01 12:17:28;;;;;;;16.33;9.90;;;24.60;99.90;;;;;;5082973;28;20036;-77
2023/10/01 12:19:59;;;;;;;16.92;9.50;;;24.60;99.90;;;;;;5077099;28;20023;-76
2023/10/01 12:22:27;;;;;;;19.17;9.88;;;24.50;99.90;;;;;;5078908;28;20093;-76
2023/10/01 12:24:57;;;;;;;17.40;8.77;;;24.50;99.90;;;;;;5095620;28;20046;-76
2023/10/01 12:27:38;;;;;;;16.70;9.32;;;24.50;99.90;;;;;;5097846;28;20023;-78
2023/10/01 12:30:10;;;;;;;17.42;9.65;;;24.60;99.90;;;;;;5097951;28;20047;-78
2023/10/01 12:32:47;;;;;;;18.27;9.60;;;24.50;99.90;;;;;;5096247;28;20060;-77
2023/10/01 12:35:27;;;;;;;17.27;8.85;;;24.50;99.90;;;;;;5078675;28;20036;-77
2023/10/01 12:38:41;;;;;;;22.25;9.68;;;24.60;99.90;;;;;;5074833;28;20062;-77
2023/10/01 12:40:52;;;;;;;16.52;9.00;;;24.60;99.90;;;;;;5078142;28;20037;-77
2023/10/01 12:43:39;;;;;;;17.97;9.60;;;24.40;99.90;;;;;;5080073;28;20491;-77
2023/10/01 12:46:09;;;;;;;16.38;9.65;;;24.40;99.90;;;;;;5077639;28;20035;-76
2023/10/01 12:48:37;;;;;;;20.10;10.43;;;24.50;99.90;;;;;;5079670;28;20014;-77
2023/10/01 12:51:04;;;;;;;15.93;9.75;;;24.50;99.90;;;;;;5101454;28;20476;-77
2023/10/01 12:53:49;;;;;;;20.60;10.68;;;24.40;99.90;;;;;;5080438;28;20077;-77
2023/10/01 12:56:21;;;;;;;18.13;10.10;;;24.50;99.90;;;;;;5097855;28;20703;-77
2023/10/01 12:58:56;;;;;;;22.92;11.98;;;24.40;99.90;;;;;;5076505;28;20055;-76
2023/10/01 13:01:31;;;;;;;19.63;10.45;;;24.40;99.90;;;;;;5095281;28;20036;-76
2023/10/01 13:04:22;;;;;;;18.50;10.10;;;24.50;99.90;;;;;;5096539;28;20048;-77
2023/10/01 13:06:48;;;;;;;15.82;9.25;;;24.50;99.90;;;;;;5096004;28;20022;-77
2023/10/01 13:12:06;;;;;;;18.63;10.30;;;24.50;99.90;;;;;;5102177;28;20434;-76
2023/10/01 13:14:32;;;;;;;17.48;10.02;;;24.50;99.90;;;;;;5099237;28;20425;-76
2023/10/01 13:17:01;;;;;;;18.75;10.60;;;24.60;99.90;;;;;;5095848;28;20012;-76
2023/10/01 13:19:38;;;;;;;19.67;9.98;;;24.60;99.90;;;;;;5078660;28;20107;-76
2023/10/01 13:22:04;;;;;;;16.73;9.77;;;24.50;99.90;;;;;;5096780;28;20478;-76
2023/10/01 13:24:34;;;;;;;17.65;9.52;;;24.50;99.90;;;;;;5095857;28;20064;-77
2023/10/01 13:27:10;;;;;;;18.05;9.50;;;24.50;99.90;;;;;;5077256;28;20012;-77
2023/10/01 13:29:39;;;;;;;17.92;10.95;;;24.40;99.90;;;;;;5075455;28;20051;-76
2023/10/01 13:32:15;;;;;;;18.58;10.35;;;24.40;99.90;;;;;;5076882;28;20559;-77
2023/10/01 13:34:54;;;;;;;18.58;9.73;;;24.40;99.90;;;;;;5096239;28;20394;-77
2023/10/01 13:40:14;;;;;;;16.88;9.65;;;24.40;99.90;;;;;;5099897;28;20550;-77
2023/10/01 14:10:40;;;;;;;15.85;9.32;;;24.30;99.90;;;;;;5093716;28;20168;-76
2023/10/01 14:13:06;;;;;;;18.75;8.23;;;24.30;99.90;;;;;;5093017;28;20102;-77
2023/10/01 14:15:32;;;;;;;16.48;9.82;;;24.30;99.90;;;;;;5092374;28;20039;-77
2023/10/01 14:17:58;;;;;;;16.20;9.30;;;24.30;99.90;;;;;;5076470;28;20030;-77